Time;durP1;ratioP1;P1;durP2;ratioP2;P2;SDS_P1;SDS_P2;PMS_P1;PMS_P2;Temp;Humidity;BMP_temperature;BMP_pressure;BME280_temperature;BME280_humidity;BME280_pressure;Samples;Min_cycle;Max_cycle;Signal;HPM_P1;HPM_P2
2022/03/30 00:01:21;;;;;;;59.18;20.50;;;;;;;5.29;100.00;100136.67;1677189;84;21078;-83
2022/03/30 00:03:47;;;;;;;52.30;19.50;;;;;;;5.29;100.00;100143.88;1713933;83;21086;-83
2022/03/30 00:06:13;;;;;;;61.48;20.20;;;;;;;5.24;100.00;100137.93;1712566;82;21525;-83
2022/03/30 00:08:42;;;;;;;55.75;20.52;;;;;;;5.22;100.00;100138.15;1713529;82;21018;-84
2022/03/30 00:11:09;;;;;;;55.65;19.37;;;;;;;5.19;100.00;100137.81;1665941;84;21082;-83
2022/03/30 00:13:35;;;;;;;55.95;19.87;;;;;;;5.14;100.00;100141.70;1651901;85;21460;-83
2022/03/30 00:16:07;;;;;;;52.15;20.23;;;;;;;5.11;100.00;100139.51;1683088;83;21487;-83
2022/03/30 00:18:34;;;;;;;48.65;18.45;;;;;;;5.08;100.00;100143.45;1686752;83;21089;-83
2022/03/30 00:21:00;;;;;;;47.20;18.65;;;;;;;5.03;100.00;100139.86;1687624;83;21048;-83
2022/03/30 00:23:26;;;;;;;59.67;19.60;;;;;;;4.98;100.00;100141.39;1689950;83;21922;-83
2022/03/30 00:25:53;;;;;;;50.28;17.70;;;;;;;4.94;100.00;100131.39;1689397;83;21614;-84
2022/03/30 00:28:19;;;;;;;53.28;18.35;;;;;;;4.87;100.00;100134.19;1686476;83;21093;-84
2022/03/30 00:30:45;;;;;;;45.85;18.10;;;;;;;4.86;100.00;100131.77;1686168;83;21606;-83
2022/03/30 00:33:12;;;;;;;51.37;18.87;;;;;;;4.81;100.00;100133.80;1686008;83;21054;-83
2022/03/30 00:35:38;;;;;;;44.18;17.25;;;;;;;4.80;100.00;100132.18;1688873;83;21078;-83
2022/03/30 00:38:04;;;;;;;51.75;17.40;;;;;;;4.77;100.00;100125.45;1686673;83;22404;-83
2022/03/30 00:40:31;;;;;;;58.05;18.85;;;;;;;4.77;100.00;100124.64;1690495;83;21086;-83
2022/03/30 00:42:57;;;;;;;50.25;18.35;;;;;;;4.77;100.00;100117.97;1685458;83;21187;-83
2022/03/30 00:45:24;;;;;;;49.65;17.80;;;;;;;4.74;100.00;100120.58;1687383;83;21098;-83
2022/03/30 00:47:52;;;;;;;49.13;17.62;;;;;;;4.74;100.00;100119.77;1685451;83;21023;-83
2022/03/30 00:50:21;;;;;;;46.25;17.87;;;;;;;4.70;100.00;100117.26;1661208;84;21058;-83
2022/03/30 00:52:50;;;;;;;51.58;18.05;;;;;;;4.71;100.00;100110.89;1687851;83;21066;-84
2022/03/30 00:55:17;;;;;;;49.35;17.85;;;;;;;4.69;100.00;100108.97;1688090;83;21063;-83
2022/03/30 00:57:46;;;;;;;48.65;17.73;;;;;;;4.68;100.00;100112.69;1690733;83;21094;-83
2022/03/30 01:00:15;;;;;;;55.55;18.25;;;;;;;4.67;100.00;100105.72;1690863;83;22064;-83
2022/03/30 01:02:44;;;;;;;52.10;19.55;;;;;;;4.66;100.00;100106.77;1682599;83;21121;-83
2022/03/30 01:05:11;;;;;;;53.75;17.95;;;;;;;4.66;100.00;100113.44;1682247;83;21050;-83
2022/03/30 01:07:38;;;;;;;51.95;17.95;;;;;;;4.63;100.00;100107.23;1682515;83;21025;-83
2022/03/30 01:10:06;;;;;;;48.30;18.25;;;;;;;4.63;100.00;100100.03;1683963;83;21544;-83
2022/03/30 01:12:34;;;;;;;58.15;19.07;;;;;;;4.65;100.00;100083.81;1685502;83;21964;-82
2022/03/30 01:15:01;;;;;;;58.05;19.60;;;;;;;4.65;100.00;100090.48;1687507;83;21101;-83
2022/03/30 01:17:27;;;;;;;48.25;20.62;;;;;;;4.66;100.00;100104.09;1690685;83;21110;-82
2022/03/30 01:19:53;;;;;;;67.53;19.15;;;;;;;4.67;100.00;100108.38;1686771;83;21492;-82
2022/03/30 01:22:20;;;;;;;60.75;20.10;;;;;;;4.68;100.00;100104.16;1687845;83;21065;-82
2022/03/30 01:24:46;;;;;;;57.90;20.80;;;;;;;4.69;100.00;100100.97;1686131;83;21114;-82
2022/03/30 01:27:12;;;;;;;54.18;20.97;;;;;;;4.67;100.00;100077.16;1687984;83;21527;-82
2022/03/30 01:32:27;;;;;;;63.65;22.93;;;;;;;4.70;100.00;100079.89;1690130;83;21090;-83
2022/03/30 01:34:54;;;;;;;68.92;24.67;;;;;;;4.75;100.00;100075.48;1683877;83;21126;-83
2022/03/30 01:37:20;;;;;;;74.15;27.02;;;;;;;4.83;100.00;100076.19;1686775;83;21177;-84
2022/03/30 01:39:47;;;;;;;87.92;28.20;;;;;;;4.93;100.00;100061.70;1691448;84;21066;-84
2022/03/30 01:42:14;;;;;;;98.55;31.05;;;;;;;5.01;100.00;100080.84;1688799;83;21520;-84
2022/03/30 01:44:40;;;;;;;94.67;30.92;;;;;;;5.12;100.00;100084.53;1688684;83;21043;-83
2022/03/30 01:47:07;;;;;;;90.87;32.65;;;;;;;5.22;100.00;100066.03;1687562;83;21065;-84
2022/03/30 01:49:33;;;;;;;94.37;30.92;;;;;;;5.33;100.00;100061.70;1684936;83;21156;-83
2022/03/30 01:52:00;;;;;;;88.35;30.15;;;;;;;5.41;100.00;100074.69;1686083;83;21038;-83
2022/03/30 01:54:28;;;;;;;91.70;29.80;;;;;;;5.51;100.00;100100.78;1685479;83;21231;-84
2022/03/30 01:56:56;;;;;;;96.37;31.12;;;;;;;5.61;100.00;100086.79;1685468;83;21090;-83
2022/03/30 01:59:23;;;;;;;85.72;28.17;;;;;;;5.68;100.00;100078.92;1687904;83;21049;-83
2022/03/30 02:01:49;;;;;;;92.65;27.45;;;;;;;5.76;100.00;100090.27;1690295;83;21211;-83
2022/03/30 02:04:16;;;;;;;90.70;27.62;;;;;;;5.81;100.00;100099.19;1687063;83;21160;-83
2022/03/30 02:06:42;;;;;;;87.82;26.52;;;;;;;5.89;100.00;100091.31;1659265;84;21128;-84
2022/03/30 02:09:11;;;;;;;90.20;28.57;;;;;;;5.94;100.00;100098.09;1685893;83;21475;-84
2022/03/30 02:11:37;;;;;;;89.52;26.40;;;;;;;6.00;100.00;100092.31;1688363;83;21023;-84
2022/03/30 02:14:03;;;;;;;101.85;26.90;;;;;;;6.06;100.00;100072.11;1672863;84;21042;-84
2022/03/30 02:16:29;;;;;;;86.87;27.62;;;;;;;6.09;100.00;100069.48;1686815;83;21571;-84
2022/03/30 02:18:56;;;;;;;93.62;26.23;;;;;;;6.14;100.00;100076.23;1688624;83;21003;-84
2022/03/30 02:21:24;;;;;;;79.30;26.50;;;;;;;6.17;100.00;100069.05;1687967;83;21094;-84
2022/03/30 02:23:51;;;;;;;88.85;25.90;;;;;;;6.21;100.00;100082.78;1689347;83;21216;-83
2022/03/30 02:26:18;;;;;;;86.80;26.82;;;;;;;6.16;100.00;100081.35;1687365;83;21094;-83
2022/03/30 02:28:53;;;;;;;91.87;27.27;;;;;;;6.24;100.00;100088.98;1691051;83;21507;-84
2022/03/30 02:31:23;;;;;;;90.65;25.45;;;;;;;6.26;100.00;100093.01;1688141;83;21134;-84
2022/03/30 02:33:49;;;;;;;78.07;25.90;;;;;;;6.27;100.00;100097.33;1689486;83;21107;-84
2022/03/30 02:36:16;;;;;;;92.78;26.33;;;;;;;6.26;100.00;100097.02;1690020;83;21053;-84
2022/03/30 02:38:44;;;;;;;95.07;28.23;;;;;;;6.27;100.00;100084.48;1687321;83;21788;-84
2022/03/30 02:41:11;;;;;;;82.57;25.32;;;;;;;6.29;100.00;100093.86;1689506;83;21125;-84
2022/03/30 02:43:40;;;;;;;91.00;26.27;;;;;;;6.32;100.00;100101.42;1692695;83;21578;-84
2022/03/30 02:46:06;;;;;;;99.80;28.23;;;;;;;6.34;100.00;100099.83;1689145;83;21223;-84
2022/03/30 02:48:34;;;;;;;87.92;26.42;;;;;;;6.34;100.00;100090.47;1685210;83;21132;-84
2022/03/30 02:51:04;;;;;;;96.35;28.20;;;;;;;6.39;100.00;100093.76;1687770;83;21141;-84
2022/03/30 02:53:32;;;;;;;86.75;25.70;;;;;;;6.36;100.00;100092.38;1685471;83;21568;-83
2022/03/30 02:55:58;;;;;;;86.05;26.25;;;;;;;6.34;100.00;100091.27;1687120;83;21062;-84
2022/03/30 02:58:26;;;;;;;73.35;25.40;;;;;;;6.35;100.00;100097.42;1682799;83;21527;-84
2022/03/30 03:00:54;;;;;;;88.52;28.47;;;;;;;6.34;100.00;100095.28;1689899;83;21953;-84
2022/03/30 03:03:21;;;;;;;92.90;26.45;;;;;;;6.32;100.00;100097.91;1686518;83;21073;-83
2022/03/30 03:05:47;;;;;;;89.85;27.32;;;;;;;6.30;100.00;100095.50;1689878;83;21006;-84
2022/03/30 03:08:13;;;;;;;89.50;25.52;;;;;;;6.32;100.00;100093.40;1682878;83;21152;-84
2022/03/30 03:10:43;;;;;;;78.10;26.42;;;;;;;6.35;100.00;100106.79;1686633;84;21007;-83
2022/03/30 03:13:11;;;;;;;84.28;26.68;;;;;;;6.35;100.00;100100.10;1693518;83;21117;-83
2022/03/30 03:15:38;;;;;;;86.75;26.35;;;;;;;6.34;100.00;100085.91;1688347;83;21169;-83
2022/03/30 03:18:05;;;;;;;85.32;27.35;;;;;;;6.33;100.00;100093.67;1688407;83;20976;-84
2022/03/30 03:20:32;;;;;;;90.22;28.32;;;;;;;6.32;100.00;100106.78;1689929;83;21078;-83
2022/03/30 03:23:04;;;;;;;90.50;28.12;;;;;;;6.31;100.00;100098.45;1685494;83;21160;-84
2022/03/30 03:28:01;;;;;;;92.22;29.72;;;;;;;6.32;100.00;100089.39;1660421;84;21261;-83
2022/03/30 03:30:28;;;;;;;93.95;28.60;;;;;;;6.33;100.00;100100.89;1656664;85;21118;-83
2022/03/30 03:32:54;;;;;;;101.97;29.75;;;;;;;6.31;100.00;100102.46;1620302;86;21050;-83
2022/03/30 03:35:21;;;;;;;83.95;29.15;;;;;;;6.30;100.00;100105.39;1632524;86;21090;-84
2022/03/30 03:37:47;;;;;;;100.87;29.48;;;;;;;6.29;100.00;100095.20;1656009;84;21160;-83
2022/03/30 03:40:14;;;;;;;90.17;28.55;;;;;;;6.30;100.00;100096.03;1635066;86;21348;-84
2022/03/30 03:42:40;;;;;;;86.50;29.18;;;;;;;6.32;100.00;100097.41;1667968;84;21485;-84
2022/03/30 03:45:08;;;;;;;98.95;29.18;;;;;;;6.34;100.00;100097.16;1672628;85;21090;-83
2022/03/30 03:47:34;;;;;;;91.53;28.92;;;;;;;6.35;100.00;100104.11;1670977;85;21145;-84
2022/03/30 03:50:01;;;;;;;90.05;28.55;;;;;;;6.36;100.00;100106.56;1661139;84;21548;-83
2022/03/30 03:52:28;;;;;;;92.50;28.55;;;;;;;6.43;100.00;100099.70;1639784;85;21831;-84
2022/03/30 03:54:54;;;;;;;92.08;29.80;;;;;;;6.44;100.00;100093.31;1617546;85;21521;-84
2022/03/30 03:57:20;;;;;;;94.60;29.65;;;;;;;6.46;100.00;100101.08;1663332;85;21740;-84
2022/03/30 03:59:47;;;;;;;87.53;29.65;;;;;;;6.50;100.00;100094.17;1627465;86;21122;-84
2022/03/30 04:02:13;;;;;;;89.90;29.72;;;;;;;6.51;100.00;100089.92;1667887;85;21156;-84
2022/03/30 04:04:39;;;;;;;90.22;29.95;;;;;;;6.55;100.00;100089.70;1634089;86;21915;-84
2022/03/30 04:07:06;;;;;;;90.17;31.10;;;;;;;6.60;100.00;100092.46;1677475;85;21081;-84
2022/03/30 04:09:32;;;;;;;92.17;30.95;;;;;;;6.64;100.00;100094.12;1655335;85;20999;-83
2022/03/30 04:11:59;;;;;;;103.17;32.28;;;;;;;6.66;100.00;100097.90;1634086;84;21118;-84
2022/03/30 04:14:25;;;;;;;91.65;29.92;;;;;;;6.64;100.00;100102.15;1637531;85;21239;-84
2022/03/30 04:16:51;;;;;;;106.75;30.65;;;;;;;6.69;100.00;100106.78;1645691;85;22034;-84
2022/03/30 04:19:18;;;;;;;101.38;31.33;;;;;;;6.74;100.00;100106.86;1624655;85;21586;-84
2022/03/30 04:21:45;;;;;;;107.00;32.17;;;;;;;6.72;100.00;100108.96;1656745;84;21667;-83
2022/03/30 04:24:12;;;;;;;113.45;32.75;;;;;;;6.80;100.00;100107.21;1646549;84;21156;-84
2022/03/30 04:26:39;;;;;;;108.00;32.58;;;;;;;6.85;100.00;100103.77;1681338;83;21050;-84
2022/03/30 04:29:06;;;;;;;94.00;32.03;;;;;;;6.88;100.00;100101.94;1636061;84;21163;-84
2022/03/30 04:31:33;;;;;;;111.68;33.35;;;;;;;6.90;100.00;100108.67;1708333;82;21157;-84
2022/03/30 04:33:59;;;;;;;95.03;32.80;;;;;;;6.92;100.00;100103.89;1715093;83;21070;-84
2022/03/30 04:36:26;;;;;;;102.92;33.48;;;;;;;7.00;100.00;100098.11;1664364;84;21574;-83
2022/03/30 04:38:53;;;;;;;102.17;34.60;;;;;;;7.06;100.00;100103.00;1712578;82;21555;-83
2022/03/30 04:41:19;;;;;;;113.90;34.13;;;;;;;7.14;100.00;100099.87;1663452;84;21809;-84
2022/03/30 04:43:46;;;;;;;110.72;35.00;;;;;;;7.24;100.00;100110.73;1663702;85;21073;-84
2022/03/30 04:46:13;;;;;;;99.07;33.05;;;;;;;7.30;100.00;100123.66;1663685;85;21429;-84
2022/03/30 04:48:39;;;;;;;96.95;32.15;;;;;;;7.36;100.00;100121.32;1647001;85;21123;-84
2022/03/30 04:51:06;;;;;;;100.38;33.65;;;;;;;7.38;100.00;100123.73;1658721;85;20979;-84
2022/03/30 04:53:34;;;;;;;99.13;33.02;;;;;;;7.50;100.00;100122.56;1714704;82;21209;-85
2022/03/30 04:56:00;;;;;;;105.80;33.33;;;;;;;7.58;100.00;100125.31;1713371;82;21102;-84
2022/03/30 04:58:26;;;;;;;108.17;35.80;;;;;;;7.68;100.00;100124.63;1657080;84;21050;-85
2022/03/30 05:00:52;;;;;;;102.92;33.58;;;;;;;7.78;100.00;100127.41;1657817;84;21108;-85
2022/03/30 05:03:19;;;;;;;108.20;33.63;;;;;;;7.81;100.00;100125.56;1663229;84;21244;-85
2022/03/30 05:05:45;;;;;;;103.62;34.70;;;;;;;7.78;100.00;100113.19;1646318;85;21075;-85
2022/03/30 05:08:11;;;;;;;101.65;31.97;;;;;;;7.78;100.00;100118.55;1664510;85;21642;-85
2022/03/30 05:10:37;;;;;;;88.70;32.15;;;;;;;7.83;100.00;100118.08;1656369;84;21046;-85
2022/03/30 05:13:05;;;;;;;101.70;33.00;;;;;;;7.87;100.00;100119.72;1719414;82;21065;-84
2022/03/30 05:15:32;;;;;;;102.58;33.05;;;;;;;7.90;100.00;100121.89;1718497;82;20974;-84
2022/03/30 05:18:00;;;;;;;96.12;32.17;;;;;;;7.98;100.00;100121.44;1721676;82;21114;-83
2022/03/30 05:20:29;;;;;;;96.00;31.68;;;;;;;8.10;100.00;100127.98;1719342;81;21558;-83
2022/03/30 05:22:55;;;;;;;91.20;31.33;;;;;;;8.20;100.00;100138.27;1719345;82;21093;-84
2022/03/30 05:25:21;;;;;;;88.12;30.95;;;;;;;8.28;100.00;100141.56;1723263;81;21625;-83
2022/03/30 05:27:48;;;;;;;86.12;29.98;;;;;;;8.32;100.00;100148.83;1693631;82;21229;-83
2022/03/30 05:30:20;;;;;;;91.80;30.75;;;;;;;8.29;100.00;100152.03;1716683;81;21089;-85
2022/03/30 05:32:46;;;;;;;81.25;29.12;;;;;;;8.32;100.00;100146.15;1679251;84;21019;-83
2022/03/30 05:35:15;;;;;;;82.42;28.65;;;;;;;8.36;100.00;100147.81;1665830;84;21021;-84
2022/03/30 05:37:41;;;;;;;82.27;29.20;;;;;;;8.40;100.00;100150.28;1664173;83;21033;-83
2022/03/30 05:40:09;;;;;;;83.07;28.57;;;;;;;8.49;100.00;100143.37;1659558;84;20977;-84
2022/03/30 05:42:36;;;;;;;82.72;28.55;;;;;;;8.57;100.00;100145.58;1657491;84;21542;-83
2022/03/30 05:45:04;;;;;;;79.27;28.75;;;;;;;8.60;100.00;100148.30;1670700;83;21546;-84
2022/03/30 05:47:31;;;;;;;79.53;27.62;;;;;;;8.66;100.00;100153.97;1662931;84;21629;-84
2022/03/30 05:49:57;;;;;;;85.97;29.92;;;;;;;8.73;100.00;100151.06;1663928;83;21025;-84
2022/03/30 05:52:24;;;;;;;88.40;30.27;;;;;;;8.73;100.00;100146.48;1671271;84;21214;-84
2022/03/30 05:54:50;;;;;;;94.80;31.37;;;;;;;8.75;100.00;100138.99;1640549;85;21185;-84
2022/03/30 05:57:18;;;;;;;83.60;30.02;;;;;;;8.86;100.00;100137.19;1639338;86;21522;-85
2022/03/30 05:59:44;;;;;;;94.25;31.27;;;;;;;8.97;100.00;100125.94;1625168;85;21083;-85
2022/03/30 06:02:12;;;;;;;87.45;30.97;;;;;;;9.08;100.00;100110.95;1617835;86;21074;-84
2022/03/30 06:04:41;;;;;;;100.00;31.45;;;;;;;9.22;100.00;100109.14;1688807;82;21679;-84
2022/03/30 06:07:08;;;;;;;88.97;31.57;;;;;;;9.32;100.00;100107.31;1695793;83;21610;-84
2022/03/30 06:09:34;;;;;;;94.13;32.13;;;;;;;9.45;100.00;100111.38;1698953;83;21574;-84
2022/03/30 06:12:06;;;;;;;96.65;32.15;;;;;;;9.61;100.00;100104.70;1697904;82;21064;-84
2022/03/30 06:14:37;;;;;;;95.22;31.68;;;;;;;9.80;100.00;100105.83;1655248;84;21188;-84
2022/03/30 06:17:12;;;;;;;88.55;30.88;;;;;;;9.99;100.00;100110.14;1588251;88;21514;-84
2022/03/30 06:19:38;;;;;;;85.35;29.45;;;;;;;10.11;100.00;100109.34;1602430;87;21192;-84
2022/03/30 06:22:09;;;;;;;82.20;29.12;;;;;;;10.29;100.00;100109.92;1560269;88;21474;-84
2022/03/30 06:24:37;;;;;;;75.70;28.95;;;;;;;10.51;100.00;100101.57;1555790;89;21109;-84
2022/03/30 06:27:04;;;;;;;79.27;29.00;;;;;;;10.80;100.00;100105.84;1598887;87;21086;-84
2022/03/30 06:29:35;;;;;;;82.85;30.23;;;;;;;11.04;100.00;100112.23;1600019;88;21633;-84
2022/03/30 06:32:02;;;;;;;83.37;31.07;;;;;;;11.23;100.00;100111.62;1602664;87;21090;-84
2022/03/30 06:34:29;;;;;;;78.02;29.20;;;;;;;11.32;100.00;100115.35;1587177;87;21137;-84
2022/03/30 06:36:56;;;;;;;90.53;32.15;;;;;;;11.42;100.00;100096.98;1589345;87;21184;-84
2022/03/30 06:39:23;;;;;;;81.37;31.20;;;;;;;11.53;100.00;100098.52;1580464;87;21101;-84
2022/03/30 06:41:50;;;;;;;88.25;31.45;;;;;;;11.63;100.00;100101.18;1593986;87;21149;-84
2022/03/30 06:44:17;;;;;;;79.62;29.18;;;;;;;11.68;100.00;100097.11;1581574;88;21102;-83
2022/03/30 06:46:44;;;;;;;82.30;30.17;;;;;;;11.77;100.00;100098.67;1582321;87;21134;-83
2022/03/30 06:49:11;;;;;;;85.87;31.02;;;;;;;11.92;100.00;100106.70;1594618;87;21091;-83
2022/03/30 06:51:38;;;;;;;83.92;30.72;;;;;;;12.12;100.00;100102.22;1587072;88;21447;-83
2022/03/30 06:54:06;;;;;;;90.25;31.68;;;;;;;12.32;100.00;100103.95;1585109;88;20966;-83
2022/03/30 06:56:33;;;;;;;81.85;31.00;;;;;;;12.40;100.00;100110.11;1590276;88;21175;-83
2022/03/30 06:59:00;;;;;;;72.12;28.57;;;;;;;12.54;100.00;100109.71;1591452;88;21183;-83
2022/03/30 07:01:27;;;;;;;81.70;30.90;;;;;;;12.81;100.00;100116.48;1589620;88;21152;-83
2022/03/30 07:03:54;;;;;;;85.28;30.27;;;;;;;13.04;100.00;100115.69;1585110;87;21619;-84
2022/03/30 07:06:26;;;;;;;77.05;28.17;;;;;;;13.97;100.00;100118.84;1557944;89;21030;-84
2022/03/30 07:11:53;;;;;;;74.67;27.60;;;;;;;14.44;100.00;100118.36;1568549;89;21669;-84
2022/03/30 07:14:28;;;;;;;63.00;26.30;;;;;;;14.85;100.00;100120.34;1606149;86;21168;-84
2022/03/30 07:16:55;;;;;;;62.35;24.15;;;;;;;15.14;100.00;100120.62;1630386;86;21104;-84
2022/03/30 07:19:22;;;;;;;52.73;22.52;;;;;;;15.40;100.00;100122.27;1637521;86;21049;-84
2022/03/30 07:21:49;;;;;;;56.08;22.75;;;;;;;15.56;100.00;100124.09;1629178;86;21053;-84
2022/03/30 07:24:16;;;;;;;56.00;24.40;;;;;;;15.60;100.00;100133.27;1632954;86;21030;-84
2022/03/30 07:26:42;;;;;;;59.42;25.20;;;;;;;15.98;100.00;100128.93;1628274;86;21097;-83
2022/03/30 07:29:09;;;;;;;55.55;24.63;;;;;;;16.31;100.00;100123.48;1657929;85;22573;-84
2022/03/30 07:31:36;;;;;;;57.78;24.92;;;;;;;16.52;100.00;100122.42;1658991;85;21148;-84
2022/03/30 07:34:03;;;;;;;57.60;24.35;;;;;;;16.96;100.00;100125.39;1660298;84;21073;-84
2022/03/30 07:36:31;;;;;;;61.45;25.88;;;;;;;17.13;96.26;100121.95;1659571;85;21041;-85
2022/03/30 07:38:58;;;;;;;63.42;26.33;;;;;;;17.18;89.88;100119.09;1659128;84;21228;-85
2022/03/30 07:41:24;;;;;;;65.35;26.50;;;;;;;17.15;91.06;100108.83;1657700;85;21235;-84
2022/03/30 07:43:51;;;;;;;68.85;27.85;;;;;;;17.27;87.61;100109.58;1661014;85;21034;-85
2022/03/30 07:46:18;;;;;;;65.12;26.10;;;;;;;17.28;87.51;100109.25;1658287;85;21019;-85
2022/03/30 07:48:45;;;;;;;62.65;27.65;;;;;;;17.48;85.72;100114.11;1660106;84;20984;-84
2022/03/30 07:51:12;;;;;;;69.77;26.93;;;;;;;17.59;83.91;100118.70;1658938;85;21078;-84
2022/03/30 07:53:38;;;;;;;66.07;26.57;;;;;;;17.58;76.41;100117.64;1655791;85;21108;-84
2022/03/30 07:56:08;;;;;;;67.70;28.77;;;;;;;17.49;79.84;100123.87;1657675;85;20934;-83
2022/03/30 07:58:35;;;;;;;69.92;27.52;;;;;;;17.85;77.91;100116.56;1659237;84;21174;-83
2022/03/30 08:01:03;;;;;;;69.35;28.02;;;;;;;18.08;76.04;100113.92;1658851;85;21514;-82
2022/03/30 08:03:30;;;;;;;74.67;28.57;;;;;;;18.41;76.51;100109.87;1662760;85;21112;-84
2022/03/30 08:05:56;;;;;;;69.95;28.95;;;;;;;18.94;69.03;100104.52;1661428;85;21163;-84
2022/03/30 08:08:23;;;;;;;66.37;28.02;;;;;;;19.08;66.87;100100.20;1674443;82;20990;-87
2022/03/30 08:10:50;;;;;;;74.67;27.95;;;;;;;18.83;62.73;100100.00;1688026;81;21094;-86
2022/03/30 08:13:17;;;;;;;66.15;27.77;;;;;;;18.69;64.46;100104.27;1689374;81;20967;-85
2022/03/30 08:15:44;;;;;;;65.12;25.80;;;;;;;18.74;65.34;100098.66;1717305;81;21006;-85
2022/03/30 08:18:11;;;;;;;61.23;25.05;;;;;;;18.87;63.39;100101.50;1719000;82;21034;-86
2022/03/30 08:23:23;;;;;;;57.90;25.02;;;;;;;19.07;62.74;100089.84;1716723;82;21598;-84
2022/03/30 08:25:50;;;;;;;57.43;25.43;;;;;;;19.30;62.20;100097.20;1720230;81;22147;-84
2022/03/30 08:28:17;;;;;;;59.85;24.40;;;;;;;19.35;59.84;100090.73;1720223;82;21061;-84
2022/03/30 08:30:44;;;;;;;59.10;26.07;;;;;;;19.38;59.63;100085.39;1718230;81;21117;-85
2022/03/30 08:33:15;;;;;;;56.10;24.27;;;;;;;19.55;59.50;100090.52;1724000;81;21637;-84
2022/03/30 08:35:42;;;;;;;54.77;24.43;;;;;;;19.63;58.95;100084.99;1722764;81;21057;-84
2022/03/30 08:38:09;;;;;;;60.35;23.85;;;;;;;19.60;57.33;100080.19;1710175;82;21050;-85
2022/03/30 08:40:38;;;;;;;59.30;23.40;;;;;;;19.67;57.30;100083.21;1722661;82;21010;-84
2022/03/30 08:43:06;;;;;;;52.15;24.05;;;;;;;19.64;56.78;100081.11;1724046;81;20996;-84
2022/03/30 08:45:34;;;;;;;58.70;23.52;;;;;;;19.73;57.22;100081.08;1722315;82;21491;-85
2022/03/30 08:48:03;;;;;;;53.17;22.10;;;;;;;20.24;58.29;100076.30;1719180;82;21730;-84
2022/03/30 08:50:32;;;;;;;52.95;23.42;;;;;;;20.73;55.47;100075.03;1724415;82;21058;-84
2022/03/30 08:53:05;;;;;;;54.48;22.98;;;;;;;21.09;54.63;100070.73;1716401;82;21677;-85
2022/03/30 08:55:32;;;;;;;52.00;22.05;;;;;;;21.49;52.98;100068.64;1713222;82;21453;-85
2022/03/30 08:58:00;;;;;;;58.50;21.95;;;;;;;21.81;51.71;100064.66;1681383;82;21545;-85
2022/03/30 09:00:27;;;;;;;50.00;22.85;;;;;;;22.15;49.82;100069.55;1717485;81;21311;-86
2022/03/30 09:03:00;;;;;;;56.15;22.35;;;;;;;22.25;47.91;100066.10;1724319;81;21032;-85
2022/03/30 09:05:33;;;;;;;52.10;22.58;;;;;;;22.26;48.52;100065.73;1719563;81;21661;-85
2022/03/30 09:08:20;;;;;;;45.35;22.15;;;;;;;22.81;48.16;100058.51;1697093;82;21098;-85
2022/03/30 09:10:49;;;;;;;47.35;22.15;;;;;;;23.66;47.27;100058.09;1718674;82;21120;-84
2022/03/30 09:13:20;;;;;;;47.73;21.95;;;;;;;25.01;45.56;100056.24;1687596;82;21180;-84
2022/03/30 09:15:48;;;;;;;41.48;20.57;;;;;;;25.92;43.62;100067.57;1703569;83;21082;-84
2022/03/30 09:18:16;;;;;;;45.23;20.75;;;;;;;26.50;41.02;100064.27;1691412;83;21210;-86
2022/03/30 09:20:47;;;;;;;47.78;22.62;;;;;;;26.44;39.75;100060.79;1663239;83;21515;-85
2022/03/30 09:23:15;;;;;;;46.73;20.62;;;;;;;26.36;38.89;100060.54;1661922;84;21151;-85
2022/03/30 09:25:50;;;;;;;49.85;22.02;;;;;;;26.83;38.70;100055.65;1671755;85;22342;-83
2022/03/30 09:28:21;;;;;;;42.90;20.60;;;;;;;27.33;38.00;100045.53;1656775;85;21092;-84
2022/03/30 09:30:49;;;;;;;36.80;19.62;;;;;;;27.46;36.32;100046.77;1577008;89;21239;-83
2022/03/30 09:33:22;;;;;;;42.48;20.15;;;;;;;27.43;36.43;100037.86;1580093;89;21037;-84
2022/03/30 09:35:49;;;;;;;47.75;20.57;;;;;;;27.78;35.98;100037.81;1578466;88;21075;-84
2022/03/30 09:38:25;;;;;;;44.83;22.02;;;;;;;28.11;34.70;100031.80;1579334;89;21074;-83
2022/03/30 09:40:55;;;;;;;37.85;18.67;;;;;;;28.21;34.14;100028.27;1599850;87;21630;-85
2022/03/30 09:43:33;;;;;;;43.05;18.92;;;;;;;28.25;34.01;100024.89;1590792;87;21150;-86
2022/03/30 09:46:10;;;;;;;42.00;19.62;;;;;;;28.40;33.83;100029.85;1563795;89;21212;-85
2022/03/30 09:48:49;;;;;;;45.33;18.40;;;;;;;28.45;33.63;100031.67;1557968;89;21949;-85
2022/03/30 09:51:13;;;;;;;36.68;19.00;;;;;;;28.65;33.27;100032.08;1502599;93;21221;-84
2022/03/30 09:53:40;;;;;;;38.60;18.00;;;;;;;28.65;32.53;100026.53;1513612;93;21177;-84
2022/03/30 09:56:16;;;;;;;32.63;16.93;;;;;;;28.29;32.13;100014.59;1513464;93;21114;-84
2022/03/30 09:58:44;;;;;;;38.85;16.17;;;;;;;28.08;32.33;100018.91;1513728;93;21119;-84
2022/03/30 10:01:17;;;;;;;45.50;17.55;;;;;;;27.71;31.82;100017.82;1510353;93;21597;-84
2022/03/30 10:03:50;;;;;;;43.58;18.45;;;;;;;27.08;32.23;100010.76;1511340;93;21111;-84
2022/03/30 10:06:22;;;;;;;41.73;18.37;;;;;;;26.64;32.77;100015.20;1513656;93;21626;-84
2022/03/30 10:08:51;;;;;;;40.10;17.17;;;;;;;26.64;33.40;100015.79;1513191;94;21053;-82
2022/03/30 10:11:21;;;;;;;36.33;17.23;;;;;;;26.67;32.77;100010.88;1512048;94;21172;-83
2022/03/30 10:13:56;;;;;;;40.83;18.02;;;;;;;26.14;33.14;100016.11;1510121;93;21085;-83
2022/03/30 10:18:56;;;;;;;42.45;18.05;;;;;;;26.00;33.43;100008.50;1435366;97;21291;-83
2022/03/30 10:21:37;;;;;;;41.77;18.77;;;;;;;25.57;33.55;100003.05;1441333;97;21731;-82
2022/03/30 10:24:55;;;;;;;41.50;18.67;;;;;;;25.46;33.62;100000.14;1449514;96;21101;-83
2022/03/30 10:27:47;;;;;;;40.50;18.25;;;;;;;25.24;33.85;99996.33;1483707;91;21805;-83
2022/03/30 10:33:56;;;;;;;48.35;18.90;;;;;;;24.90;33.84;99991.28;1536047;90;21620;-86
2022/03/30 10:37:07;;;;;;;48.38;19.10;;;;;;;24.75;34.39;99989.48;1538559;91;21591;-85
2022/03/30 10:39:45;;;;;;;;;;;;;;;;;;;;;
2022/03/30 10:42:13;;;;;;;47.53;18.90;;;;;;;24.50;34.45;99971.97;1486046;95;21094;-86
2022/03/30 10:44:59;;;;;;;46.53;19.40;;;;;;;24.53;34.66;99980.90;1482563;95;21078;-86
2022/03/30 10:47:30;;;;;;;42.83;18.95;;;;;;;24.41;34.25;99981.86;1482555;95;21142;-86
2022/03/30 11:02:03;;;;;;;39.15;17.82;;;;;;;24.13;35.22;99952.45;1446822;97;21098;-86
2022/03/30 11:21:48;;;;;;;27.67;12.33;;;;;;;24.69;32.80;99931.14;1381128;101;21541;-86
2022/03/30 11:24:32;;;;;;;31.85;12.93;;;;;;;24.55;33.17;99922.07;1380210;101;21766;-86
2022/03/30 11:31:05;;;;;;;;;;;;;;;;;;;;;
2022/03/30 12:14:35;;;;;;;23.80;10.93;;;;;;;23.97;30.56;99882.36;1322861;103;21718;-87
2022/03/30 12:59:32;;;;;;;;;;;;;;;;;;;;;
2022/03/30 13:33:52;;;;;;;;;;;;;;;;;;;;;
2022/03/30 13:36:55;;;;;;;28.52;11.25;;;;;;;22.89;30.43;99858.90;1633083;85;21121;-85
2022/03/30 13:39:47;;;;;;;31.68;10.88;;;;;;;22.65;30.66;99857.22;1625328;86;21540;-85
2022/03/30 13:42:56;;;;;;;;;;;;;;;;;;;;;
2022/03/30 13:48:56;;;;;;;29.80;10.88;;;;;;;22.31;30.94;99854.09;1410680;99;21163;-85
2022/03/30 13:52:25;;;;;;;29.80;11.10;;;;;;;22.20;31.25;99852.47;1337432;105;21278;-84
2022/03/30 13:55:25;;;;;;;;;;;;;;;;;;;;;
2022/03/30 13:58:12;;;;;;;28.02;11.90;;;;;;;22.05;31.31;99849.72;1273187;109;21806;-85
2022/03/30 14:00:28;;;;;;;25.77;10.65;;;;;;;21.91;31.40;99852.35;1223687;114;21375;-84
2022/03/30 14:02:59;;;;;;;30.50;11.10;;;;;;;21.86;31.60;99849.86;1226607;114;21661;-84
2022/03/30 14:05:35;;;;;;;36.95;11.33;;;;;;;21.77;31.66;99850.04;1230931;114;21767;-84
2022/03/30 14:24:02;;;;;;;;;;;;;;;;;;;;;
2022/03/30 14:30:15;;;;;;;;;;;;;;;;;;;;;
2022/03/30 14:32:50;;;;;;;37.10;12.60;;;;;;;21.48;32.95;99859.47;1212458;116;21223;-84
2022/03/30 14:35:37;;;;;;;;;;;;;;;;;;;;;
2022/03/30 14:38:15;;;;;;;31.80;12.53;;;;;;;21.37;33.00;99857.59;1210774;114;21730;-84
2022/03/30 14:40:58;;;;;;;;;;;;;;;;;;;;;